sensor_id;sensor_type;location;lat;lon;timestamp;temperature;humidity
76787;DHT22;65739;51.482;5.702;2023-09-07T00:00:49;17.50;99.90
76787;DHT22;65739;51.482;5.702;2023-09-07T00:03:14;17.50;99.90
76787;DHT22;65739;51.482;5.702;2023-09-07T00:05:40;17.50;99.90
76787;DHT22;65739;51.482;5.702;2023-09-07T00:08:06;17.50;99.90
76787;DHT22;65739;51.482;5.702;2023-09-07T00:10:35;17.40;99.90
76787;DHT22;65739;51.482;5.702;2023-09-07T00:13:04;17.50;99.90
76787;DHT22;65739;51.482;5.702;2023-09-07T00:15:30;17.40;99.90
76787;DHT22;65739;51.482;5.702;2023-09-07T00:18:00;17.40;99.90
76787;DHT22;65739;51.482;5.702;2023-09-07T00:20:25;17.40;99.90
76787;DHT22;65739;51.482;5.702;2023-09-07T00:22:51;17.30;99.90
76787;DHT22;65739;51.482;5.702;2023-09-07T00:25:17;17.30;99.90
76787;DHT22;65739;51.482;5.702;2023-09-07T00:27:42;17.20;99.90
76787;DHT22;65739;51.482;5.702;2023-09-07T00:30:08;17.20;99.90
76787;DHT22;65739;51.482;5.702;2023-09-07T00:32:38;17.20;99.90
76787;DHT22;65739;51.482;5.702;2023-09-07T00:35:05;17.10;99.90
76787;DHT22;65739;51.482;5.702;2023-09-07T00:37:31;17.10;99.90
76787;DHT22;65739;51.482;5.702;2023-09-07T00:39:57;17.10;99.90
76787;DHT22;65739;51.482;5.702;2023-09-07T00:42:22;17.00;99.90
76787;DHT22;65739;51.482;5.702;2023-09-07T00:44:48;17.10;99.90
76787;DHT22;65739;51.482;5.702;2023-09-07T00:47:15;17.00;99.90
76787;DHT22;65739;51.482;5.702;2023-09-07T00:49:40;17.00;99.90
76787;DHT22;65739;51.482;5.702;2023-09-07T00:52:08;17.00;99.90
76787;DHT22;65739;51.482;5.702;2023-09-07T00:54:35;16.90;99.90
76787;DHT22;65739;51.482;5.702;2023-09-07T00:57:04;16.90;99.90
76787;DHT22;65739;51.482;5.702;2023-09-07T00:59:30;16.90;99.90
76787;DHT22;65739;51.482;5.702;2023-09-07T01:01:57;16.90;99.90
76787;DHT22;65739;51.482;5.702;2023-09-07T01:04:22;16.80;99.90
76787;DHT22;65739;51.482;5.702;2023-09-07T01:06:55;16.80;99.90
76787;DHT22;65739;51.482;5.702;2023-09-07T01:09:24;16.70;99.90
76787;DHT22;65739;51.482;5.702;2023-09-07T01:11:50;16.70;99.90
76787;DHT22;65739;51.482;5.702;2023-09-07T01:14:16;16.70;99.90
76787;DHT22;65739;51.482;5.702;2023-09-07T01:16:42;16.70;99.90
76787;DHT22;65739;51.482;5.702;2023-09-07T01:19:08;16.60;99.90
76787;DHT22;65739;51.482;5.702;2023-09-07T01:21:36;16.70;99.90
76787;DHT22;65739;51.482;5.702;2023-09-07T01:24:04;16.60;99.90
76787;DHT22;65739;51.482;5.702;2023-09-07T01:26:31;16.60;99.90
76787;DHT22;65739;51.482;5.702;2023-09-07T01:28:57;16.50;99.90
76787;DHT22;65739;51.482;5.702;2023-09-07T01:31:22;16.50;99.90
76787;DHT22;65739;51.482;5.702;2023-09-07T01:33:48;16.40;99.90
76787;DHT22;65739;51.482;5.702;2023-09-07T01:36:13;16.30;99.90
76787;DHT22;65739;51.482;5.702;2023-09-07T01:38:39;16.30;99.90
76787;DHT22;65739;51.482;5.702;2023-09-07T01:41:04;16.30;99.90
76787;DHT22;65739;51.482;5.702;2023-09-07T01:43:30;16.30;99.90
76787;DHT22;65739;51.482;5.702;2023-09-07T01:45:55;16.30;99.90
76787;DHT22;65739;51.482;5.702;2023-09-07T01:48:21;16.30;99.90
76787;DHT22;65739;51.482;5.702;2023-09-07T01:50:46;16.30;99.90
76787;DHT22;65739;51.482;5.702;2023-09-07T01:53:12;16.20;99.90
76787;DHT22;65739;51.482;5.702;2023-09-07T01:55:38;16.20;99.90
76787;DHT22;65739;51.482;5.702;2023-09-07T01:58:03;16.40;99.90
76787;DHT22;65739;51.482;5.702;2023-09-07T02:00:29;16.10;99.90
76787;DHT22;65739;51.482;5.702;2023-09-07T02:02:55;16.10;99.90
76787;DHT22;65739;51.482;5.702;2023-09-07T02:05:20;16.10;99.90
76787;DHT22;65739;51.482;5.702;2023-09-07T02:07:46;16.10;99.90
76787;DHT22;65739;51.482;5.702;2023-09-07T02:10:14;16.00;99.90
76787;DHT22;65739;51.482;5.702;2023-09-07T02:12:40;16.00;99.90
76787;DHT22;65739;51.482;5.702;2023-09-07T02:15:06;15.90;99.90
76787;DHT22;65739;51.482;5.702;2023-09-07T02:17:32;16.00;99.90
76787;DHT22;65739;51.482;5.702;2023-09-07T02:19:57;15.90;99.90
76787;DHT22;65739;51.482;5.702;2023-09-07T02:22:23;15.90;99.90
76787;DHT22;65739;51.482;5.702;2023-09-07T02:24:49;15.80;99.90
76787;DHT22;65739;51.482;5.702;2023-09-07T02:27:14;15.80;99.90
76787;DHT22;65739;51.482;5.702;2023-09-07T02:29:40;15.80;99.90
76787;DHT22;65739;51.482;5.702;2023-09-07T02:32:06;15.80;99.90
76787;DHT22;65739;51.482;5.702;2023-09-07T02:34:31;15.80;99.90
76787;DHT22;65739;51.482;5.702;2023-09-07T02:36:57;15.70;99.90
76787;DHT22;65739;51.482;5.702;2023-09-07T02:39:23;15.70;99.90
76787;DHT22;65739;51.482;5.702;2023-09-07T02:41:52;15.70;99.90
76787;DHT22;65739;51.482;5.702;2023-09-07T02:44:17;15.60;99.90
76787;DHT22;65739;51.482;5.702;2023-09-07T02:46:43;15.60;99.90
76787;DHT22;65739;51.482;5.702;2023-09-07T02:49:08;15.60;99.90
76787;DHT22;65739;51.482;5.702;2023-09-07T02:51:34;15.60;99.90
76787;DHT22;65739;51.482;5.702;2023-09-07T02:54:02;15.50;99.90
76787;DHT22;65739;51.482;5.702;2023-09-07T02:56:28;15.50;99.90
76787;DHT22;65739;51.482;5.702;2023-09-07T02:58:53;15.50;99.90
76787;DHT22;65739;51.482;5.702;2023-09-07T03:01:19;15.50;99.90
76787;DHT22;65739;51.482;5.702;2023-09-07T03:03:46;15.50;99.90
76787;DHT22;65739;51.482;5.702;2023-09-07T03:06:13;15.40;99.90
76787;DHT22;65739;51.482;5.702;2023-09-07T03:08:40;15.40;99.90
76787;DHT22;65739;51.482;5.702;2023-09-07T03:11:06;15.30;99.90
76787;DHT22;65739;51.482;5.702;2023-09-07T03:13:32;15.30;99.90
76787;DHT22;65739;51.482;5.702;2023-09-07T03:15:59;15.30;99.90
76787;DHT22;65739;51.482;5.702;2023-09-07T03:18:24;15.30;99.90
76787;DHT22;65739;51.482;5.702;2023-09-07T03:20:50;15.30;99.90
76787;DHT22;65739;51.482;5.702;2023-09-07T03:23:16;15.30;99.90
76787;DHT22;65739;51.482;5.702;2023-09-07T03:25:42;15.30;99.90
76787;DHT22;65739;51.482;5.702;2023-09-07T03:28:07;15.20;99.90
76787;DHT22;65739;51.482;5.702;2023-09-07T03:30:33;15.20;99.90
76787;DHT22;65739;51.482;5.702;2023-09-07T03:32:59;15.20;99.90
76787;DHT22;65739;51.482;5.702;2023-09-07T03:35:24;15.20;99.90
76787;DHT22;65739;51.482;5.702;2023-09-07T03:37:50;15.10;99.90
76787;DHT22;65739;51.482;5.702;2023-09-07T03:40:16;15.10;99.90
76787;DHT22;65739;51.482;5.702;2023-09-07T03:42:42;15.10;99.90
76787;DHT22;65739;51.482;5.702;2023-09-07T03:45:09;15.10;99.90
76787;DHT22;65739;51.482;5.702;2023-09-07T03:47:34;15.10;99.90
76787;DHT22;65739;51.482;5.702;2023-09-07T03:50:00;15.00;99.90
76787;DHT22;65739;51.482;5.702;2023-09-07T03:52:26;15.00;99.90
76787;DHT22;65739;51.482;5.702;2023-09-07T03:54:56;15.00;99.90
76787;DHT22;65739;51.482;5.702;2023-09-07T03:57:22;15.10;99.90
76787;DHT22;65739;51.482;5.702;2023-09-07T03:59:48;15.00;99.90
76787;DHT22;65739;51.482;5.702;2023-09-07T04:02:14;15.00;99.90
76787;DHT22;65739;51.482;5.702;2023-09-07T04:04:40;15.00;99.90
76787;DHT22;65739;51.482;5.702;2023-09-07T04:07:06;15.10;99.90
76787;DHT22;65739;51.482;5.702;2023-09-07T04:09:31;15.00;99.90
76787;DHT22;65739;51.482;5.702;2023-09-07T04:11:57;15.00;99.90
76787;DHT22;65739;51.482;5.702;2023-09-07T04:14:22;15.00;99.90
76787;DHT22;65739;51.482;5.702;2023-09-07T04:16:48;15.00;99.90
76787;DHT22;65739;51.482;5.702;2023-09-07T04:19:14;15.00;99.90
76787;DHT22;65739;51.482;5.702;2023-09-07T04:21:39;15.00;99.90
76787;DHT22;65739;51.482;5.702;2023-09-07T04:24:05;15.00;99.90
76787;DHT22;65739;51.482;5.702;2023-09-07T04:26:30;15.00;99.90
76787;DHT22;65739;51.482;5.702;2023-09-07T04:28:56;15.00;99.90
76787;DHT22;65739;51.482;5.702;2023-09-07T04:31:21;14.90;99.90
76787;DHT22;65739;51.482;5.702;2023-09-07T04:33:49;14.90;99.90
76787;DHT22;65739;51.482;5.702;2023-09-07T04:36:15;14.90;99.90
76787;DHT22;65739;51.482;5.702;2023-09-07T04:38:41;14.90;99.90
76787;DHT22;65739;51.482;5.702;2023-09-07T04:41:10;14.90;99.90
76787;DHT22;65739;51.482;5.702;2023-09-07T04:43:37;14.90;99.90
76787;DHT22;65739;51.482;5.702;2023-09-07T04:46:03;14.90;99.90
76787;DHT22;65739;51.482;5.702;2023-09-07T04:48:28;14.90;99.90
76787;DHT22;65739;51.482;5.702;2023-09-07T04:51:05;14.90;99.90
76787;DHT22;65739;51.482;5.702;2023-09-07T04:53:33;14.90;99.90
76787;DHT22;65739;51.482;5.702;2023-09-07T04:56:00;14.90;99.90
76787;DHT22;65739;51.482;5.702;2023-09-07T04:58:25;14.80;99.90
76787;DHT22;65739;51.482;5.702;2023-09-07T05:00:51;14.80;99.90
76787;DHT22;65739;51.482;5.702;2023-09-07T05:03:17;14.80;99.90
76787;DHT22;65739;51.482;5.702;2023-09-07T05:05:43;14.80;99.90
76787;DHT22;65739;51.482;5.702;2023-09-07T05:08:09;14.80;99.90
76787;DHT22;65739;51.482;5.702;2023-09-07T05:10:35;14.80;99.90
76787;DHT22;65739;51.482;5.702;2023-09-07T05:13:01;14.80;99.90
76787;DHT22;65739;51.482;5.702;2023-09-07T05:15:27;14.80;99.90
76787;DHT22;65739;51.482;5.702;2023-09-07T05:17:53;14.90;99.90
76787;DHT22;65739;51.482;5.702;2023-09-07T05:20:18;14.80;99.90
76787;DHT22;65739;51.482;5.702;2023-09-07T05:22:44;14.90;99.90
76787;DHT22;65739;51.482;5.702;2023-09-07T05:25:10;14.80;99.90
76787;DHT22;65739;51.482;5.702;2023-09-07T05:27:36;14.80;99.90
76787;DHT22;65739;51.482;5.702;2023-09-07T05:30:02;14.80;99.90
76787;DHT22;65739;51.482;5.702;2023-09-07T05:32:28;14.80;99.90
76787;DHT22;65739;51.482;5.702;2023-09-07T05:34:53;14.90;99.90
76787;DHT22;65739;51.482;5.702;2023-09-07T05:37:19;15.00;99.90
76787;DHT22;65739;51.482;5.702;2023-09-07T05:39:44;15.00;99.90
76787;DHT22;65739;51.482;5.702;2023-09-07T05:42:10;15.00;99.90
76787;DHT22;65739;51.482;5.702;2023-09-07T05:44:36;15.10;99.90
76787;DHT22;65739;51.482;5.702;2023-09-07T05:47:01;15.10;99.90
76787;DHT22;65739;51.482;5.702;2023-09-07T05:49:27;15.20;99.90
76787;DHT22;65739;51.482;5.702;2023-09-07T05:51:53;15.20;99.90
76787;DHT22;65739;51.482;5.702;2023-09-07T05:54:19;15.30;99.90
76787;DHT22;65739;51.482;5.702;2023-09-07T05:56:44;15.40;99.90
76787;DHT22;65739;51.482;5.702;2023-09-07T05:59:10;15.40;99.90
76787;DHT22;65739;51.482;5.702;2023-09-07T06:01:35;15.50;99.90
76787;DHT22;65739;51.482;5.702;2023-09-07T06:04:01;15.60;99.90
76787;DHT22;65739;51.482;5.702;2023-09-07T06:06:27;15.70;99.90
76787;DHT22;65739;51.482;5.702;2023-09-07T06:08:52;15.80;99.90
76787;DHT22;65739;51.482;5.702;2023-09-07T06:11:18;15.90;99.90
76787;DHT22;65739;51.482;5.702;2023-09-07T06:13:43;16.00;99.90
76787;DHT22;65739;51.482;5.702;2023-09-07T06:16:09;16.00;99.90
76787;DHT22;65739;51.482;5.702;2023-09-07T06:18:35;16.10;99.90
76787;DHT22;65739;51.482;5.702;2023-09-07T06:21:00;16.20;99.90
76787;DHT22;65739;51.482;5.702;2023-09-07T06:23:26;16.30;99.90
76787;DHT22;65739;51.482;5.702;2023-09-07T06:25:51;16.30;99.90
76787;DHT22;65739;51.482;5.702;2023-09-07T06:28:16;16.40;99.90
76787;DHT22;65739;51.482;5.702;2023-09-07T06:30:42;16.50;99.90
76787;DHT22;65739;51.482;5.702;2023-09-07T06:33:08;16.60;99.90
76787;DHT22;65739;51.482;5.702;2023-09-07T06:35:33;16.70;99.90
76787;DHT22;65739;51.482;5.702;2023-09-07T06:37:59;16.80;99.90
76787;DHT22;65739;51.482;5.702;2023-09-07T06:40:25;16.90;99.90
76787;DHT22;65739;51.482;5.702;2023-09-07T06:42:51;17.10;99.90
76787;DHT22;65739;51.482;5.702;2023-09-07T06:45:17;17.20;99.90
76787;DHT22;65739;51.482;5.702;2023-09-07T06:47:43;17.30;99.90
76787;DHT22;65739;51.482;5.702;2023-09-07T06:50:08;17.40;99.90
76787;DHT22;65739;51.482;5.702;2023-09-07T06:52:35;17.40;99.90
76787;DHT22;65739;51.482;5.702;2023-09-07T06:55:00;17.60;99.90
76787;DHT22;65739;51.482;5.702;2023-09-07T06:57:26;17.70;99.90
76787;DHT22;65739;51.482;5.702;2023-09-07T06:59:52;17.80;99.90
76787;DHT22;65739;51.482;5.702;2023-09-07T07:02:18;18.00;99.90
76787;DHT22;65739;51.482;5.702;2023-09-07T07:04:43;18.10;99.90
76787;DHT22;65739;51.482;5.702;2023-09-07T07:07:10;18.20;99.90
76787;DHT22;65739;51.482;5.702;2023-09-07T07:09:36;18.30;99.90
76787;DHT22;65739;51.482;5.702;2023-09-07T07:12:02;18.40;99.90
76787;DHT22;65739;51.482;5.702;2023-09-07T07:14:28;18.60;99.90
76787;DHT22;65739;51.482;5.702;2023-09-07T07:16:53;18.60;99.90
76787;DHT22;65739;51.482;5.702;2023-09-07T07:19:19;18.70;99.90
76787;DHT22;65739;51.482;5.702;2023-09-07T07:21:44;18.80;99.90
76787;DHT22;65739;51.482;5.702;2023-09-07T07:24:10;18.90;99.90
76787;DHT22;65739;51.482;5.702;2023-09-07T07:26:36;19.20;99.90
76787;DHT22;65739;51.482;5.702;2023-09-07T07:29:02;19.30;99.90
76787;DHT22;65739;51.482;5.702;2023-09-07T07:31:30;19.30;99.90
76787;DHT22;65739;51.482;5.702;2023-09-07T07:33:56;19.40;99.90
76787;DHT22;65739;51.482;5.702;2023-09-07T07:36:21;19.40;99.90
76787;DHT22;65739;51.482;5.702;2023-09-07T07:38:47;19.60;99.90
76787;DHT22;65739;51.482;5.702;2023-09-07T07:41:12;19.70;99.90
76787;DHT22;65739;51.482;5.702;2023-09-07T07:43:38;19.70;99.90
76787;DHT22;65739;51.482;5.702;2023-09-07T07:46:04;19.80;99.90
76787;DHT22;65739;51.482;5.702;2023-09-07T07:48:29;19.90;99.90
76787;DHT22;65739;51.482;5.702;2023-09-07T07:50:55;19.90;99.90
76787;DHT22;65739;51.482;5.702;2023-09-07T07:53:21;20.00;99.90
76787;DHT22;65739;51.482;5.702;2023-09-07T07:55:46;20.10;99.90
76787;DHT22;65739;51.482;5.702;2023-09-07T07:58:13;20.30;99.90
76787;DHT22;65739;51.482;5.702;2023-09-07T08:00:39;20.40;99.90
76787;DHT22;65739;51.482;5.702;2023-09-07T08:03:06;20.40;99.90
76787;DHT22;65739;51.482;5.702;2023-09-07T08:05:33;20.50;99.90
76787;DHT22;65739;51.482;5.702;2023-09-07T08:07:59;20.60;99.90
76787;DHT22;65739;51.482;5.702;2023-09-07T08:10:25;20.80;99.90
76787;DHT22;65739;51.482;5.702;2023-09-07T08:13:03;20.90;99.90
76787;DHT22;65739;51.482;5.702;2023-09-07T08:15:29;21.00;99.90
76787;DHT22;65739;51.482;5.702;2023-09-07T08:17:57;21.20;99.90
76787;DHT22;65739;51.482;5.702;2023-09-07T08:20:22;21.40;99.90
76787;DHT22;65739;51.482;5.702;2023-09-07T08:22:48;21.50;99.90
76787;DHT22;65739;51.482;5.702;2023-09-07T08:25:14;21.70;99.90
76787;DHT22;65739;51.482;5.702;2023-09-07T08:27:43;21.80;99.90
76787;DHT22;65739;51.482;5.702;2023-09-07T08:30:14;22.10;99.90
76787;DHT22;65739;51.482;5.702;2023-09-07T08:32:44;22.20;99.90
76787;DHT22;65739;51.482;5.702;2023-09-07T08:35:11;22.40;99.90
76787;DHT22;65739;51.482;5.702;2023-09-07T08:37:39;22.40;99.90
76787;DHT22;65739;51.482;5.702;2023-09-07T08:40:05;22.70;99.90
76787;DHT22;65739;51.482;5.702;2023-09-07T08:42:35;22.80;99.90
76787;DHT22;65739;51.482;5.702;2023-09-07T08:45:02;22.90;99.90
76787;DHT22;65739;51.482;5.702;2023-09-07T08:47:36;23.20;99.90
76787;DHT22;65739;51.482;5.702;2023-09-07T08:50:04;23.40;99.90
76787;DHT22;65739;51.482;5.702;2023-09-07T08:52:32;23.50;99.90
76787;DHT22;65739;51.482;5.702;2023-09-07T08:54:57;23.50;99.90
76787;DHT22;65739;51.482;5.702;2023-09-07T08:57:26;23.80;99.90
76787;DHT22;65739;51.482;5.702;2023-09-07T08:59:53;23.80;99.90
76787;DHT22;65739;51.482;5.702;2023-09-07T09:02:18;23.80;99.90
76787;DHT22;65739;51.482;5.702;2023-09-07T09:04:44;23.90;99.90
76787;DHT22;65739;51.482;5.702;2023-09-07T09:07:10;24.20;99.90
76787;DHT22;65739;51.482;5.702;2023-09-07T09:09:35;24.20;99.90
76787;DHT22;65739;51.482;5.702;2023-09-07T09:12:11;24.50;99.90
76787;DHT22;65739;51.482;5.702;2023-09-07T09:14:37;24.70;99.90
76787;DHT22;65739;51.482;5.702;2023-09-07T09:17:02;24.80;99.90
76787;DHT22;65739;51.482;5.702;2023-09-07T09:19:32;25.20;99.90
76787;DHT22;65739;51.482;5.702;2023-09-07T09:21:58;25.30;99.90
76787;DHT22;65739;51.482;5.702;2023-09-07T09:24:24;25.40;99.90
76787;DHT22;65739;51.482;5.702;2023-09-07T09:26:50;25.40;99.90
76787;DHT22;65739;51.482;5.702;2023-09-07T09:29:16;25.40;99.90
76787;DHT22;65739;51.482;5.702;2023-09-07T09:31:41;25.50;99.90
76787;DHT22;65739;51.482;5.702;2023-09-07T09:34:08;25.70;99.90
76787;DHT22;65739;51.482;5.702;2023-09-07T09:36:35;26.00;99.90
76787;DHT22;65739;51.482;5.702;2023-09-07T09:39:01;25.80;99.90
76787;DHT22;65739;51.482;5.702;2023-09-07T09:41:30;25.90;99.90
76787;DHT22;65739;51.482;5.702;2023-09-07T09:43:57;26.20;99.90
76787;DHT22;65739;51.482;5.702;2023-09-07T09:46:24;26.30;99.90
76787;DHT22;65739;51.482;5.702;2023-09-07T09:48:50;26.50;99.90
76787;DHT22;65739;51.482;5.702;2023-09-07T09:51:18;26.80;99.90
76787;DHT22;65739;51.482;5.702;2023-09-07T09:53:44;26.80;99.90
76787;DHT22;65739;51.482;5.702;2023-09-07T09:56:10;26.90;99.90
76787;DHT22;65739;51.482;5.702;2023-09-07T09:58:35;26.80;99.90
76787;DHT22;65739;51.482;5.702;2023-09-07T10:01:01;27.00;99.90
76787;DHT22;65739;51.482;5.702;2023-09-07T10:03:44;27.10;99.90
76787;DHT22;65739;51.482;5.702;2023-09-07T10:06:17;27.40;99.90
76787;DHT22;65739;51.482;5.702;2023-09-07T10:09:12;27.60;99.90
76787;DHT22;65739;51.482;5.702;2023-09-07T10:11:42;27.70;99.90
76787;DHT22;65739;51.482;5.702;2023-09-07T10:14:08;27.60;99.90
76787;DHT22;65739;51.482;5.702;2023-09-07T10:16:43;27.80;99.90
76787;DHT22;65739;51.482;5.702;2023-09-07T10:19:18;28.20;99.90
76787;DHT22;65739;51.482;5.702;2023-09-07T10:21:44;28.10;99.90
76787;DHT22;65739;51.482;5.702;2023-09-07T10:24:10;28.00;99.90
76787;DHT22;65739;51.482;5.702;2023-09-07T10:26:36;28.30;99.90
76787;DHT22;65739;51.482;5.702;2023-09-07T10:29:02;28.20;99.90
76787;DHT22;65739;51.482;5.702;2023-09-07T10:31:29;27.70;99.90
76787;DHT22;65739;51.482;5.702;2023-09-07T10:34:08;27.90;99.90
76787;DHT22;65739;51.482;5.702;2023-09-07T10:36:36;28.00;99.90
76787;DHT22;65739;51.482;5.702;2023-09-07T10:39:02;28.20;99.90
76787;DHT22;65739;51.482;5.702;2023-09-07T10:41:39;28.70;99.90
76787;DHT22;65739;51.482;5.702;2023-09-07T10:44:06;28.70;99.90
76787;DHT22;65739;51.482;5.702;2023-09-07T10:46:31;28.80;99.90
76787;DHT22;65739;51.482;5.702;2023-09-07T10:48:57;29.30;99.90
76787;DHT22;65739;51.482;5.702;2023-09-07T10:51:23;29.00;99.90
76787;DHT22;65739;51.482;5.702;2023-09-07T10:53:49;29.10;99.90
76787;DHT22;65739;51.482;5.702;2023-09-07T10:56:14;29.50;99.90
76787;DHT22;65739;51.482;5.702;2023-09-07T10:58:40;29.70;99.90
76787;DHT22;65739;51.482;5.702;2023-09-07T11:01:08;29.60;99.90
76787;DHT22;65739;51.482;5.702;2023-09-07T11:03:37;29.20;99.90
76787;DHT22;65739;51.482;5.702;2023-09-07T11:08:34;29.90;99.90
76787;DHT22;65739;51.482;5.702;2023-09-07T11:11:00;30.00;99.90
76787;DHT22;65739;51.482;5.702;2023-09-07T11:13:27;29.80;99.90
76787;DHT22;65739;51.482;5.702;2023-09-07T11:15:54;29.90;99.90
76787;DHT22;65739;51.482;5.702;2023-09-07T11:18:21;30.10;99.90
76787;DHT22;65739;51.482;5.702;2023-09-07T11:20:50;30.10;99.90
76787;DHT22;65739;51.482;5.702;2023-09-07T11:23:17;30.20;99.90
76787;DHT22;65739;51.482;5.702;2023-09-07T11:25:43;30.60;99.90
76787;DHT22;65739;51.482;5.702;2023-09-07T11:28:09;30.60;99.90
76787;DHT22;65739;51.482;5.702;2023-09-07T11:30:37;30.60;99.90
76787;DHT22;65739;51.482;5.702;2023-09-07T11:33:06;30.40;99.90
76787;DHT22;65739;51.482;5.702;2023-09-07T11:35:33;30.60;99.90
76787;DHT22;65739;51.482;5.702;2023-09-07T11:38:03;30.80;99.90
76787;DHT22;65739;51.482;5.702;2023-09-07T11:40:30;30.70;99.90
76787;DHT22;65739;51.482;5.702;2023-09-07T11:42:56;31.20;99.90
76787;DHT22;65739;51.482;5.702;2023-09-07T11:45:21;30.60;99.90
76787;DHT22;65739;51.482;5.702;2023-09-07T11:47:47;30.70;99.90
76787;DHT22;65739;51.482;5.702;2023-09-07T11:50:13;31.10;99.90
76787;DHT22;65739;51.482;5.702;2023-09-07T11:52:38;30.90;99.90
76787;DHT22;65739;51.482;5.702;2023-09-07T11:55:04;30.80;99.90
76787;DHT22;65739;51.482;5.702;2023-09-07T11:57:30;30.80;99.90
76787;DHT22;65739;51.482;5.702;2023-09-07T11:59:56;31.00;99.90
76787;DHT22;65739;51.482;5.702;2023-09-07T12:02:21;30.90;99.90
76787;DHT22;65739;51.482;5.702;2023-09-07T12:04:47;30.80;99.90
76787;DHT22;65739;51.482;5.702;2023-09-07T12:07:14;30.90;99.90
76787;DHT22;65739;51.482;5.702;2023-09-07T12:09:39;31.40;99.90
76787;DHT22;65739;51.482;5.702;2023-09-07T12:12:05;31.70;99.90
76787;DHT22;65739;51.482;5.702;2023-09-07T12:14:31;31.50;99.90
76787;DHT22;65739;51.482;5.702;2023-09-07T12:16:57;31.70;99.90
76787;DHT22;65739;51.482;5.702;2023-09-07T12:19:22;31.10;99.90
76787;DHT22;65739;51.482;5.702;2023-09-07T12:21:48;31.30;99.90
76787;DHT22;65739;51.482;5.702;2023-09-07T12:24:14;31.10;99.90
76787;DHT22;65739;51.482;5.702;2023-09-07T12:26:39;31.40;99.90
76787;DHT22;65739;51.482;5.702;2023-09-07T12:29:04;31.30;99.90
76787;DHT22;65739;51.482;5.702;2023-09-07T12:31:30;31.50;99.90
76787;DHT22;65739;51.482;5.702;2023-09-07T12:33:57;31.80;99.90
76787;DHT22;65739;51.482;5.702;2023-09-07T12:36:22;31.70;99.90
76787;DHT22;65739;51.482;5.702;2023-09-07T12:38:48;31.80;99.90
76787;DHT22;65739;51.482;5.702;2023-09-07T12:41:14;31.80;99.90
76787;DHT22;65739;51.482;5.702;2023-09-07T12:43:41;31.40;99.90
76787;DHT22;65739;51.482;5.702;2023-09-07T12:46:08;31.60;99.90
76787;DHT22;65739;51.482;5.702;2023-09-07T12:48:33;32.00;99.90
76787;DHT22;65739;51.482;5.702;2023-09-07T12:50:59;32.10;99.90
76787;DHT22;65739;51.482;5.702;2023-09-07T12:53:25;31.90;99.90
76787;DHT22;65739;51.482;5.702;2023-09-07T12:55:52;31.90;99.90
76787;DHT22;65739;51.482;5.702;2023-09-07T12:58:18;32.00;99.90
76787;DHT22;65739;51.482;5.702;2023-09-07T13:00:44;32.50;99.90
76787;DHT22;65739;51.482;5.702;2023-09-07T13:03:09;32.80;99.90
76787;DHT22;65739;51.482;5.702;2023-09-07T13:05:36;32.60;99.90
76787;DHT22;65739;51.482;5.702;2023-09-07T13:08:02;32.30;99.90
76787;DHT22;65739;51.482;5.702;2023-09-07T13:10:28;32.10;99.90
76787;DHT22;65739;51.482;5.702;2023-09-07T13:12:54;32.30;99.90
76787;DHT22;65739;51.482;5.702;2023-09-07T13:15:20;32.50;99.90
76787;DHT22;65739;51.482;5.702;2023-09-07T13:17:45;32.20;99.90
76787;DHT22;65739;51.482;5.702;2023-09-07T13:20:11;32.70;99.90
76787;DHT22;65739;51.482;5.702;2023-09-07T13:22:37;32.70;99.90
76787;DHT22;65739;51.482;5.702;2023-09-07T13:25:04;32.20;99.90
76787;DHT22;65739;51.482;5.702;2023-09-07T13:27:30;32.60;99.90
76787;DHT22;65739;51.482;5.702;2023-09-07T13:29:56;32.30;99.90
76787;DHT22;65739;51.482;5.702;2023-09-07T13:32:23;32.90;99.90
76787;DHT22;65739;51.482;5.702;2023-09-07T13:34:49;32.80;99.90
76787;DHT22;65739;51.482;5.702;2023-09-07T13:37:15;32.60;99.90
76787;DHT22;65739;51.482;5.702;2023-09-07T13:39:40;32.50;99.90
76787;DHT22;65739;51.482;5.702;2023-09-07T13:42:06;32.60;99.90
76787;DHT22;65739;51.482;5.702;2023-09-07T13:44:32;32.50;99.90
76787;DHT22;65739;51.482;5.702;2023-09-07T13:46:57;32.70;99.90
76787;DHT22;65739;51.482;5.702;2023-09-07T13:49:23;32.70;99.90
76787;DHT22;65739;51.482;5.702;2023-09-07T13:51:48;33.10;99.90
76787;DHT22;65739;51.482;5.702;2023-09-07T13:54:14;32.70;99.90
76787;DHT22;65739;51.482;5.702;2023-09-07T13:56:39;32.60;99.90
76787;DHT22;65739;51.482;5.702;2023-09-07T13:59:07;32.70;99.90
76787;DHT22;65739;51.482;5.702;2023-09-07T14:01:33;32.70;99.90
76787;DHT22;65739;51.482;5.702;2023-09-07T14:03:58;32.70;99.90
76787;DHT22;65739;51.482;5.702;2023-09-07T14:06:24;32.70;99.90
76787;DHT22;65739;51.482;5.702;2023-09-07T14:08:50;32.90;99.90
76787;DHT22;65739;51.482;5.702;2023-09-07T14:11:17;32.80;99.90
76787;DHT22;65739;51.482;5.702;2023-09-07T14:13:42;32.50;99.90
76787;DHT22;65739;51.482;5.702;2023-09-07T14:16:08;32.20;99.90
76787;DHT22;65739;51.482;5.702;2023-09-07T14:18:36;32.20;99.90
76787;DHT22;65739;51.482;5.702;2023-09-07T14:21:02;32.10;99.90
76787;DHT22;65739;51.482;5.702;2023-09-07T14:23:27;32.20;99.90
76787;DHT22;65739;51.482;5.702;2023-09-07T14:25:54;32.30;99.90
76787;DHT22;65739;51.482;5.702;2023-09-07T14:28:19;32.30;99.90
76787;DHT22;65739;51.482;5.702;2023-09-07T14:30:45;32.70;99.90
76787;DHT22;65739;51.482;5.702;2023-09-07T14:33:11;32.30;99.90
76787;DHT22;65739;51.482;5.702;2023-09-07T14:35:36;32.20;99.90
76787;DHT22;65739;51.482;5.702;2023-09-07T14:38:02;32.60;99.90
76787;DHT22;65739;51.482;5.702;2023-09-07T14:40:28;32.10;99.90
76787;DHT22;65739;51.482;5.702;2023-09-07T14:42:53;32.20;99.90
76787;DHT22;65739;51.482;5.702;2023-09-07T14:45:19;32.20;99.90
76787;DHT22;65739;51.482;5.702;2023-09-07T14:47:45;32.20;99.90
76787;DHT22;65739;51.482;5.702;2023-09-07T14:50:10;32.30;99.90
76787;DHT22;65739;51.482;5.702;2023-09-07T14:52:36;32.20;99.90
76787;DHT22;65739;51.482;5.702;2023-09-07T14:55:07;32.00;99.90
76787;DHT22;65739;51.482;5.702;2023-09-07T14:57:33;32.10;99.90
76787;DHT22;65739;51.482;5.702;2023-09-07T14:59:59;31.90;99.90
76787;DHT22;65739;51.482;5.702;2023-09-07T15:02:25;32.00;99.90
76787;DHT22;65739;51.482;5.702;2023-09-07T15:04:50;31.80;99.90
76787;DHT22;65739;51.482;5.702;2023-09-07T15:07:16;31.80;99.90
76787;DHT22;65739;51.482;5.702;2023-09-07T15:09:42;31.90;99.90
76787;DHT22;65739;51.482;5.702;2023-09-07T15:12:07;32.30;99.90
76787;DHT22;65739;51.482;5.702;2023-09-07T15:14:33;32.40;99.90
76787;DHT22;65739;51.482;5.702;2023-09-07T15:16:58;32.30;99.90
76787;DHT22;65739;51.482;5.702;2023-09-07T15:19:24;32.50;99.90
76787;DHT22;65739;51.482;5.702;2023-09-07T15:21:50;32.40;99.90
76787;DHT22;65739;51.482;5.702;2023-09-07T15:24:17;32.30;99.90
76787;DHT22;65739;51.482;5.702;2023-09-07T15:26:43;32.60;99.90